sensor_id;sensor_type;location;lat;lon;timestamp;P1;durP1;ratioP1;P2;durP2;ratioP2
31464;SDS011;18089;47.428;15.006;2022-09-30T00:01:54;29.35;;;16.50;;
31464;SDS011;18089;47.428;15.006;2022-09-30T00:04:26;30.00;;;17.52;;
31464;SDS011;18089;47.428;15.006;2022-09-30T00:06:58;23.83;;;16.95;;
31464;SDS011;18089;47.428;15.006;2022-09-30T00:09:31;28.00;;;17.00;;
31464;SDS011;18089;47.428;15.006;2022-09-30T00:12:03;23.50;;;16.33;;
31464;SDS011;18089;47.428;15.006;2022-09-30T00:14:35;28.30;;;16.77;;
31464;SDS011;18089;47.428;15.006;2022-09-30T00:17:08;23.88;;;16.30;;
31464;SDS011;18089;47.428;15.006;2022-09-30T00:19:40;27.15;;;17.25;;
31464;SDS011;18089;47.428;15.006;2022-09-30T00:22:12;27.50;;;17.60;;
31464;SDS011;18089;47.428;15.006;2022-09-30T00:24:45;28.08;;;17.20;;
31464;SDS011;18089;47.428;15.006;2022-09-30T00:27:17;28.85;;;16.60;;
31464;SDS011;18089;47.428;15.006;2022-09-30T00:29:49;25.88;;;16.73;;
31464;SDS011;18089;47.428;15.006;2022-09-30T00:32:21;28.02;;;17.25;;
31464;SDS011;18089;47.428;15.006;2022-09-30T00:34:53;26.50;;;16.73;;
31464;SDS011;18089;47.428;15.006;2022-09-30T00:37:25;28.98;;;17.55;;
31464;SDS011;18089;47.428;15.006;2022-09-30T00:39:58;30.15;;;18.55;;
31464;SDS011;18089;47.428;15.006;2022-09-30T00:42:30;26.80;;;17.00;;
31464;SDS011;18089;47.428;15.006;2022-09-30T00:45:03;26.83;;;18.75;;
31464;SDS011;18089;47.428;15.006;2022-09-30T00:47:41;27.50;;;18.00;;
31464;SDS011;18089;47.428;15.006;2022-09-30T00:50:27;30.25;;;17.42;;
31464;SDS011;18089;47.428;15.006;2022-09-30T00:53:07;32.85;;;18.65;;
31464;SDS011;18089;47.428;15.006;2022-09-30T00:55:51;29.15;;;18.08;;
31464;SDS011;18089;47.428;15.006;2022-09-30T00:58:27;33.15;;;18.90;;
31464;SDS011;18089;47.428;15.006;2022-09-30T01:01:00;30.60;;;18.60;;
31464;SDS011;18089;47.428;15.006;2022-09-30T01:03:34;28.48;;;17.50;;
31464;SDS011;18089;47.428;15.006;2022-09-30T01:06:07;28.77;;;17.75;;
31464;SDS011;18089;47.428;15.006;2022-09-30T01:08:39;33.10;;;18.35;;
31464;SDS011;18089;47.428;15.006;2022-09-30T01:11:13;30.48;;;16.98;;
31464;SDS011;18089;47.428;15.006;2022-09-30T01:13:45;29.40;;;18.20;;
31464;SDS011;18089;47.428;15.006;2022-09-30T01:19:39;30.88;;;17.65;;
31464;SDS011;18089;47.428;15.006;2022-09-30T01:22:30;29.35;;;17.27;;
31464;SDS011;18089;47.428;15.006;2022-09-30T01:31:14;29.73;;;17.38;;
31464;SDS011;18089;47.428;15.006;2022-09-30T01:33:54;33.20;;;18.63;;
31464;SDS011;18089;47.428;15.006;2022-09-30T01:36:33;31.35;;;18.58;;
31464;SDS011;18089;47.428;15.006;2022-09-30T01:39:17;29.88;;;17.85;;
31464;SDS011;18089;47.428;15.006;2022-09-30T01:41:56;28.63;;;17.60;;
31464;SDS011;18089;47.428;15.006;2022-09-30T01:44:32;30.17;;;18.63;;
31464;SDS011;18089;47.428;15.006;2022-09-30T01:47:11;29.10;;;16.80;;
31464;SDS011;18089;47.428;15.006;2022-09-30T01:49:47;27.83;;;17.90;;
31464;SDS011;18089;47.428;15.006;2022-09-30T01:52:21;34.03;;;19.15;;
31464;SDS011;18089;47.428;15.006;2022-09-30T01:54:58;30.92;;;18.52;;
31464;SDS011;18089;47.428;15.006;2022-09-30T01:57:32;32.15;;;18.27;;
31464;SDS011;18089;47.428;15.006;2022-09-30T02:00:09;27.73;;;17.48;;
31464;SDS011;18089;47.428;15.006;2022-09-30T02:02:44;28.92;;;17.50;;
31464;SDS011;18089;47.428;15.006;2022-09-30T02:05:19;34.03;;;17.90;;
31464;SDS011;18089;47.428;15.006;2022-09-30T02:07:55;28.70;;;18.10;;
31464;SDS011;18089;47.428;15.006;2022-09-30T02:10:31;29.15;;;17.30;;
31464;SDS011;18089;47.428;15.006;2022-09-30T02:13:07;26.58;;;16.80;;
31464;SDS011;18089;47.428;15.006;2022-09-30T02:15:42;29.45;;;17.08;;
31464;SDS011;18089;47.428;15.006;2022-09-30T02:18:18;26.83;;;17.23;;
31464;SDS011;18089;47.428;15.006;2022-09-30T02:20:56;30.45;;;16.73;;
31464;SDS011;18089;47.428;15.006;2022-09-30T02:23:30;26.60;;;17.00;;
31464;SDS011;18089;47.428;15.006;2022-09-30T02:26:05;30.98;;;16.83;;
31464;SDS011;18089;47.428;15.006;2022-09-30T02:28:40;31.52;;;17.58;;
31464;SDS011;18089;47.428;15.006;2022-09-30T02:31:14;26.42;;;16.23;;
31464;SDS011;18089;47.428;15.006;2022-09-30T02:33:49;27.35;;;17.45;;
31464;SDS011;18089;47.428;15.006;2022-09-30T02:36:27;29.95;;;17.70;;
31464;SDS011;18089;47.428;15.006;2022-09-30T02:39:01;28.20;;;17.02;;
31464;SDS011;18089;47.428;15.006;2022-09-30T02:41:37;33.10;;;18.00;;
31464;SDS011;18089;47.428;15.006;2022-09-30T02:44:13;32.35;;;18.02;;
31464;SDS011;18089;47.428;15.006;2022-09-30T02:46:48;33.20;;;17.65;;
31464;SDS011;18089;47.428;15.006;2022-09-30T02:49:27;33.63;;;18.33;;
31464;SDS011;18089;47.428;15.006;2022-09-30T02:52:05;27.80;;;16.55;;
31464;SDS011;18089;47.428;15.006;2022-09-30T02:54:45;31.05;;;18.92;;
31464;SDS011;18089;47.428;15.006;2022-09-30T02:57:21;30.25;;;18.25;;
31464;SDS011;18089;47.428;15.006;2022-09-30T02:59:59;33.00;;;18.35;;
31464;SDS011;18089;47.428;15.006;2022-09-30T03:02:31;29.77;;;17.92;;
31464;SDS011;18089;47.428;15.006;2022-09-30T03:05:04;30.15;;;18.05;;
31464;SDS011;18089;47.428;15.006;2022-09-30T03:07:37;31.08;;;18.83;;
31464;SDS011;18089;47.428;15.006;2022-09-30T03:10:13;34.47;;;18.35;;
31464;SDS011;18089;47.428;15.006;2022-09-30T03:12:50;31.52;;;17.98;;
31464;SDS011;18089;47.428;15.006;2022-09-30T03:15:32;29.30;;;16.85;;
31464;SDS011;18089;47.428;15.006;2022-09-30T03:18:11;29.83;;;17.25;;
31464;SDS011;18089;47.428;15.006;2022-09-30T03:21:05;31.40;;;17.45;;
31464;SDS011;18089;47.428;15.006;2022-09-30T03:23:50;32.28;;;17.48;;
31464;SDS011;18089;47.428;15.006;2022-09-30T03:26:40;31.95;;;16.67;;
31464;SDS011;18089;47.428;15.006;2022-09-30T03:29:18;34.33;;;18.63;;
31464;SDS011;18089;47.428;15.006;2022-09-30T03:31:56;32.17;;;17.75;;
31464;SDS011;18089;47.428;15.006;2022-09-30T03:34:37;34.05;;;18.70;;
31464;SDS011;18089;47.428;15.006;2022-09-30T03:37:23;33.42;;;17.35;;
31464;SDS011;18089;47.428;15.006;2022-09-30T03:39:58;32.38;;;17.85;;
31464;SDS011;18089;47.428;15.006;2022-09-30T03:42:34;31.55;;;18.38;;
31464;SDS011;18089;47.428;15.006;2022-09-30T03:45:09;32.47;;;17.38;;
31464;SDS011;18089;47.428;15.006;2022-09-30T03:47:46;27.45;;;17.50;;
31464;SDS011;18089;47.428;15.006;2022-09-30T03:50:21;26.73;;;16.75;;
31464;SDS011;18089;47.428;15.006;2022-09-30T03:52:55;25.35;;;16.50;;
31464;SDS011;18089;47.428;15.006;2022-09-30T03:55:27;28.88;;;17.23;;
31464;SDS011;18089;47.428;15.006;2022-09-30T03:58:00;28.23;;;16.75;;
31464;SDS011;18089;47.428;15.006;2022-09-30T04:00:32;39.90;;;17.90;;
31464;SDS011;18089;47.428;15.006;2022-09-30T04:03:04;30.63;;;19.17;;
31464;SDS011;18089;47.428;15.006;2022-09-30T04:05:36;32.97;;;19.13;;
31464;SDS011;18089;47.428;15.006;2022-09-30T04:08:10;27.98;;;17.88;;
31464;SDS011;18089;47.428;15.006;2022-09-30T04:10:42;33.33;;;18.77;;
31464;SDS011;18089;47.428;15.006;2022-09-30T04:13:14;29.08;;;18.58;;
31464;SDS011;18089;47.428;15.006;2022-09-30T04:15:51;30.05;;;19.30;;
31464;SDS011;18089;47.428;15.006;2022-09-30T04:18:25;33.50;;;19.05;;
31464;SDS011;18089;47.428;15.006;2022-09-30T04:21:03;31.38;;;19.50;;
31464;SDS011;18089;47.428;15.006;2022-09-30T04:23:38;30.80;;;18.42;;
31464;SDS011;18089;47.428;15.006;2022-09-30T04:26:11;31.23;;;18.80;;
31464;SDS011;18089;47.428;15.006;2022-09-30T04:28:44;30.98;;;17.70;;
31464;SDS011;18089;47.428;15.006;2022-09-30T04:31:17;30.83;;;19.63;;
31464;SDS011;18089;47.428;15.006;2022-09-30T04:33:49;32.10;;;19.25;;
31464;SDS011;18089;47.428;15.006;2022-09-30T04:36:21;31.65;;;18.40;;
31464;SDS011;18089;47.428;15.006;2022-09-30T04:38:55;31.10;;;18.95;;
31464;SDS011;18089;47.428;15.006;2022-09-30T04:41:27;27.15;;;17.75;;
31464;SDS011;18089;47.428;15.006;2022-09-30T04:43:59;25.40;;;17.77;;
31464;SDS011;18089;47.428;15.006;2022-09-30T04:46:35;28.33;;;18.05;;
31464;SDS011;18089;47.428;15.006;2022-09-30T04:49:07;27.48;;;17.40;;
31464;SDS011;18089;47.428;15.006;2022-09-30T04:51:39;29.33;;;17.23;;
31464;SDS011;18089;47.428;15.006;2022-09-30T04:54:16;34.75;;;19.80;;
31464;SDS011;18089;47.428;15.006;2022-09-30T04:56:48;30.23;;;19.02;;
31464;SDS011;18089;47.428;15.006;2022-09-30T04:59:20;32.17;;;18.65;;
31464;SDS011;18089;47.428;15.006;2022-09-30T05:01:52;31.23;;;18.60;;
31464;SDS011;18089;47.428;15.006;2022-09-30T05:04:24;36.85;;;21.60;;
31464;SDS011;18089;47.428;15.006;2022-09-30T05:06:56;33.20;;;20.45;;
31464;SDS011;18089;47.428;15.006;2022-09-30T05:09:30;29.45;;;19.42;;
31464;SDS011;18089;47.428;15.006;2022-09-30T05:12:02;34.22;;;19.20;;
31464;SDS011;18089;47.428;15.006;2022-09-30T05:14:34;35.08;;;20.30;;
31464;SDS011;18089;47.428;15.006;2022-09-30T05:17:06;29.35;;;18.60;;
31464;SDS011;18089;47.428;15.006;2022-09-30T05:19:39;32.88;;;19.00;;
31464;SDS011;18089;47.428;15.006;2022-09-30T05:22:11;37.50;;;19.27;;
31464;SDS011;18089;47.428;15.006;2022-09-30T05:24:44;32.38;;;18.63;;
31464;SDS011;18089;47.428;15.006;2022-09-30T05:27:16;29.67;;;18.60;;
31464;SDS011;18089;47.428;15.006;2022-09-30T05:29:48;31.92;;;19.63;;
31464;SDS011;18089;47.428;15.006;2022-09-30T05:32:20;37.67;;;21.42;;
31464;SDS011;18089;47.428;15.006;2022-09-30T05:34:53;32.88;;;21.20;;
31464;SDS011;18089;47.428;15.006;2022-09-30T05:37:25;30.52;;;19.80;;
31464;SDS011;18089;47.428;15.006;2022-09-30T05:39:59;36.42;;;20.10;;
31464;SDS011;18089;47.428;15.006;2022-09-30T05:42:31;29.38;;;19.13;;
31464;SDS011;18089;47.428;15.006;2022-09-30T05:45:06;32.00;;;19.73;;
31464;SDS011;18089;47.428;15.006;2022-09-30T05:47:38;31.38;;;20.20;;
31464;SDS011;18089;47.428;15.006;2022-09-30T05:50:11;30.70;;;20.30;;
31464;SDS011;18089;47.428;15.006;2022-09-30T05:52:43;30.27;;;20.52;;
31464;SDS011;18089;47.428;15.006;2022-09-30T05:55:16;43.08;;;28.60;;
31464;SDS011;18089;47.428;15.006;2022-09-30T05:57:49;42.78;;;27.75;;
31464;SDS011;18089;47.428;15.006;2022-09-30T06:00:22;38.90;;;27.63;;
31464;SDS011;18089;47.428;15.006;2022-09-30T06:02:54;43.75;;;27.52;;
31464;SDS011;18089;47.428;15.006;2022-09-30T06:05:26;40.78;;;24.73;;
31464;SDS011;18089;47.428;15.006;2022-09-30T06:07:58;33.85;;;22.77;;
31464;SDS011;18089;47.428;15.006;2022-09-30T06:10:31;34.17;;;21.52;;
31464;SDS011;18089;47.428;15.006;2022-09-30T06:13:04;28.63;;;19.58;;
31464;SDS011;18089;47.428;15.006;2022-09-30T06:15:36;30.80;;;19.50;;
31464;SDS011;18089;47.428;15.006;2022-09-30T06:18:10;29.30;;;19.17;;
31464;SDS011;18089;47.428;15.006;2022-09-30T06:20:43;31.30;;;19.58;;
31464;SDS011;18089;47.428;15.006;2022-09-30T06:23:15;33.13;;;20.90;;
31464;SDS011;18089;47.428;15.006;2022-09-30T06:25:50;33.15;;;20.60;;
31464;SDS011;18089;47.428;15.006;2022-09-30T06:28:22;37.78;;;23.98;;
31464;SDS011;18089;47.428;15.006;2022-09-30T06:30:56;34.65;;;22.13;;
31464;SDS011;18089;47.428;15.006;2022-09-30T06:33:28;33.88;;;21.05;;
31464;SDS011;18089;47.428;15.006;2022-09-30T06:36:01;29.45;;;19.15;;
31464;SDS011;18089;47.428;15.006;2022-09-30T06:38:34;28.33;;;19.02;;
31464;SDS011;18089;47.428;15.006;2022-09-30T06:41:10;29.33;;;18.98;;
31464;SDS011;18089;47.428;15.006;2022-09-30T06:43:42;25.90;;;18.17;;
31464;SDS011;18089;47.428;15.006;2022-09-30T06:46:14;28.73;;;19.92;;
31464;SDS011;18089;47.428;15.006;2022-09-30T06:48:46;30.67;;;19.30;;
31464;SDS011;18089;47.428;15.006;2022-09-30T06:51:18;26.63;;;17.85;;
31464;SDS011;18089;47.428;15.006;2022-09-30T06:53:51;25.17;;;17.27;;
31464;SDS011;18089;47.428;15.006;2022-09-30T06:56:24;23.25;;;16.60;;
31464;SDS011;18089;47.428;15.006;2022-09-30T06:58:56;25.13;;;15.93;;
31464;SDS011;18089;47.428;15.006;2022-09-30T07:01:28;20.95;;;14.02;;
31464;SDS011;18089;47.428;15.006;2022-09-30T07:04:00;18.23;;;13.55;;
31464;SDS011;18089;47.428;15.006;2022-09-30T07:06:38;20.05;;;14.30;;
31464;SDS011;18089;47.428;15.006;2022-09-30T07:09:10;17.77;;;12.88;;
31464;SDS011;18089;47.428;15.006;2022-09-30T07:11:44;16.88;;;12.25;;
31464;SDS011;18089;47.428;15.006;2022-09-30T07:14:17;17.25;;;13.05;;
31464;SDS011;18089;47.428;15.006;2022-09-30T07:16:56;18.83;;;13.55;;
31464;SDS011;18089;47.428;15.006;2022-09-30T07:19:28;20.40;;;14.02;;
31464;SDS011;18089;47.428;15.006;2022-09-30T07:22:00;19.65;;;13.32;;
31464;SDS011;18089;47.428;15.006;2022-09-30T07:24:47;18.17;;;13.43;;
31464;SDS011;18089;47.428;15.006;2022-09-30T07:27:20;18.08;;;13.10;;
31464;SDS011;18089;47.428;15.006;2022-09-30T07:29:52;16.17;;;12.38;;
31464;SDS011;18089;47.428;15.006;2022-09-30T07:32:24;16.70;;;11.55;;
31464;SDS011;18089;47.428;15.006;2022-09-30T07:34:57;12.52;;;9.48;;
31464;SDS011;18089;47.428;15.006;2022-09-30T07:37:29;12.07;;;9.90;;
31464;SDS011;18089;47.428;15.006;2022-09-30T07:40:05;10.52;;;8.85;;
31464;SDS011;18089;47.428;15.006;2022-09-30T07:42:40;11.68;;;8.68;;
31464;SDS011;18089;47.428;15.006;2022-09-30T07:45:14;11.20;;;9.43;;
31464;SDS011;18089;47.428;15.006;2022-09-30T07:47:48;13.38;;;11.23;;
31464;SDS011;18089;47.428;15.006;2022-09-30T07:50:20;11.43;;;9.38;;
31464;SDS011;18089;47.428;15.006;2022-09-30T07:52:52;13.43;;;9.27;;
31464;SDS011;18089;47.428;15.006;2022-09-30T07:55:26;11.57;;;9.45;;
31464;SDS011;18089;47.428;15.006;2022-09-30T07:57:59;11.35;;;9.52;;
31464;SDS011;18089;47.428;15.006;2022-09-30T08:00:31;11.88;;;9.45;;
31464;SDS011;18089;47.428;15.006;2022-09-30T08:03:03;11.80;;;9.07;;
31464;SDS011;18089;47.428;15.006;2022-09-30T08:05:37;10.43;;;8.82;;
31464;SDS011;18089;47.428;15.006;2022-09-30T08:08:10;10.25;;;8.57;;
31464;SDS011;18089;47.428;15.006;2022-09-30T08:10:43;10.80;;;8.95;;
31464;SDS011;18089;47.428;15.006;2022-09-30T08:13:16;11.00;;;9.80;;
31464;SDS011;18089;47.428;15.006;2022-09-30T08:15:49;10.40;;;8.80;;
31464;SDS011;18089;47.428;15.006;2022-09-30T08:18:21;9.00;;;8.10;;
31464;SDS011;18089;47.428;15.006;2022-09-30T08:20:53;10.52;;;8.45;;
31464;SDS011;18089;47.428;15.006;2022-09-30T08:23:26;10.65;;;8.00;;
31464;SDS011;18089;47.428;15.006;2022-09-30T08:25:59;8.43;;;7.53;;
31464;SDS011;18089;47.428;15.006;2022-09-30T08:28:34;7.75;;;6.95;;
31464;SDS011;18089;47.428;15.006;2022-09-30T08:31:08;8.88;;;7.88;;
31464;SDS011;18089;47.428;15.006;2022-09-30T08:33:42;8.40;;;7.60;;
31464;SDS011;18089;47.428;15.006;2022-09-30T08:36:15;7.57;;;6.88;;
31464;SDS011;18089;47.428;15.006;2022-09-30T08:38:48;7.45;;;6.72;;
31464;SDS011;18089;47.428;15.006;2022-09-30T08:41:30;9.82;;;6.78;;
31464;SDS011;18089;47.428;15.006;2022-09-30T08:44:33;6.75;;;5.80;;
31464;SDS011;18089;47.428;15.006;2022-09-30T08:47:22;7.47;;;6.78;;
31464;SDS011;18089;47.428;15.006;2022-09-30T08:50:07;4.65;;;4.32;;
31464;SDS011;18089;47.428;15.006;2022-09-30T08:52:44;4.70;;;4.22;;
31464;SDS011;18089;47.428;15.006;2022-09-30T08:55:19;5.35;;;4.95;;
31464;SDS011;18089;47.428;15.006;2022-09-30T08:57:54;5.20;;;4.80;;
31464;SDS011;18089;47.428;15.006;2022-09-30T09:00:28;5.18;;;4.68;;
31464;SDS011;18089;47.428;15.006;2022-09-30T09:03:00;5.90;;;5.40;;
31464;SDS011;18089;47.428;15.006;2022-09-30T09:05:37;4.00;;;3.70;;
31464;SDS011;18089;47.428;15.006;2022-09-30T09:08:19;4.97;;;4.47;;
31464;SDS011;18089;47.428;15.006;2022-09-30T09:10:58;4.63;;;4.32;;
31464;SDS011;18089;47.428;15.006;2022-09-30T09:13:36;4.55;;;4.15;;
31464;SDS011;18089;47.428;15.006;2022-09-30T09:16:16;4.80;;;4.38;;
31464;SDS011;18089;47.428;15.006;2022-09-30T09:18:59;4.80;;;4.47;;
31464;SDS011;18089;47.428;15.006;2022-09-30T09:21:39;5.55;;;5.00;;
31464;SDS011;18089;47.428;15.006;2022-09-30T09:24:17;3.72;;;3.50;;
31464;SDS011;18089;47.428;15.006;2022-09-30T09:26:51;3.38;;;3.17;;
31464;SDS011;18089;47.428;15.006;2022-09-30T09:29:26;3.47;;;3.00;;
31464;SDS011;18089;47.428;15.006;2022-09-30T09:32:10;3.08;;;2.88;;
31464;SDS011;18089;47.428;15.006;2022-09-30T09:34:44;3.40;;;3.10;;
31464;SDS011;18089;47.428;15.006;2022-09-30T09:37:23;3.17;;;2.97;;
31464;SDS011;18089;47.428;15.006;2022-09-30T09:40:20;2.85;;;2.65;;
31464;SDS011;18089;47.428;15.006;2022-09-30T09:43:00;2.17;;;2.00;;
31464;SDS011;18089;47.428;15.006;2022-09-30T09:45:42;2.40;;;2.30;;
31464;SDS011;18089;47.428;15.006;2022-09-30T09:48:21;2.55;;;2.45;;
31464;SDS011;18089;47.428;15.006;2022-09-30T09:50:56;2.30;;;2.20;;
31464;SDS011;18089;47.428;15.006;2022-09-30T09:53:37;2.70;;;2.50;;
31464;SDS011;18089;47.428;15.006;2022-09-30T09:56:15;2.33;;;2.22;;
31464;SDS011;18089;47.428;15.006;2022-09-30T09:59:03;2.25;;;2.00;;
31464;SDS011;18089;47.428;15.006;2022-09-30T10:01:41;2.10;;;2.00;;
31464;SDS011;18089;47.428;15.006;2022-09-30T10:04:17;2.10;;;2.00;;
31464;SDS011;18089;47.428;15.006;2022-09-30T10:06:51;2.40;;;2.30;;
31464;SDS011;18089;47.428;15.006;2022-09-30T10:09:26;2.30;;;2.20;;
31464;SDS011;18089;47.428;15.006;2022-09-30T10:15:04;3.33;;;2.85;;
31464;SDS011;18089;47.428;15.006;2022-09-30T10:17:49;2.33;;;2.22;;
31464;SDS011;18089;47.428;15.006;2022-09-30T10:20:27;2.42;;;2.33;;
31464;SDS011;18089;47.428;15.006;2022-09-30T10:23:02;2.53;;;2.10;;
31464;SDS011;18089;47.428;15.006;2022-09-30T10:25:38;2.30;;;2.10;;
31464;SDS011;18089;47.428;15.006;2022-09-30T10:28:26;2.13;;;2.00;;
31464;SDS011;18089;47.428;15.006;2022-09-30T10:31:06;2.78;;;2.60;;
31464;SDS011;18089;47.428;15.006;2022-09-30T10:33:44;2.60;;;2.50;;
31464;SDS011;18089;47.428;15.006;2022-09-30T10:36:19;2.50;;;2.30;;
31464;SDS011;18089;47.428;15.006;2022-09-30T10:38:55;2.78;;;2.00;;
31464;SDS011;18089;47.428;15.006;2022-09-30T10:41:31;2.50;;;2.30;;
31464;SDS011;18089;47.428;15.006;2022-09-30T10:44:05;2.40;;;2.30;;
31464;SDS011;18089;47.428;15.006;2022-09-30T10:46:43;2.58;;;2.47;;
31464;SDS011;18089;47.428;15.006;2022-09-30T10:49:22;2.88;;;2.30;;
31464;SDS011;18089;47.428;15.006;2022-09-30T10:51:58;2.60;;;2.50;;
31464;SDS011;18089;47.428;15.006;2022-09-30T10:54:35;2.58;;;2.38;;
31464;SDS011;18089;47.428;15.006;2022-09-30T10:57:15;2.20;;;2.10;;
31464;SDS011;18089;47.428;15.006;2022-09-30T10:59:51;2.30;;;2.05;;
31464;SDS011;18089;47.428;15.006;2022-09-30T11:02:29;2.00;;;1.90;;
31464;SDS011;18089;47.428;15.006;2022-09-30T11:05:09;2.33;;;2.22;;
31464;SDS011;18089;47.428;15.006;2022-09-30T11:07:45;2.33;;;2.22;;
31464;SDS011;18089;47.428;15.006;2022-09-30T11:10:26;2.60;;;2.50;;
31464;SDS011;18089;47.428;15.006;2022-09-30T11:13:06;3.58;;;3.28;;
31464;SDS011;18089;47.428;15.006;2022-09-30T11:15:43;2.83;;;2.03;;
31464;SDS011;18089;47.428;15.006;2022-09-30T11:18:19;2.00;;;1.90;;
31464;SDS011;18089;47.428;15.006;2022-09-30T11:20:54;1.73;;;1.60;;
31464;SDS011;18089;47.428;15.006;2022-09-30T11:23:31;1.30;;;1.30;;
31464;SDS011;18089;47.428;15.006;2022-09-30T11:26:06;1.50;;;1.40;;
31464;SDS011;18089;47.428;15.006;2022-09-30T11:28:48;1.27;;;1.27;;
31464;SDS011;18089;47.428;15.006;2022-09-30T11:31:29;2.00;;;1.90;;
31464;SDS011;18089;47.428;15.006;2022-09-30T11:34:07;1.88;;;1.77;;
31464;SDS011;18089;47.428;15.006;2022-09-30T11:36:48;2.50;;;2.40;;
31464;SDS011;18089;47.428;15.006;2022-09-30T11:39:30;2.35;;;2.25;;
31464;SDS011;18089;47.428;15.006;2022-09-30T11:42:21;3.03;;;2.55;;
31464;SDS011;18089;47.428;15.006;2022-09-30T11:44:56;2.72;;;2.53;;
31464;SDS011;18089;47.428;15.006;2022-09-30T11:47:38;2.33;;;2.22;;
31464;SDS011;18089;47.428;15.006;2022-09-30T11:50:22;2.42;;;2.33;;
31464;SDS011;18089;47.428;15.006;2022-09-30T11:53:02;10.15;;;6.22;;
31464;SDS011;18089;47.428;15.006;2022-09-30T11:55:44;3.05;;;2.85;;
31464;SDS011;18089;47.428;15.006;2022-09-30T11:58:27;3.78;;;3.47;;
31464;SDS011;18089;47.428;15.006;2022-09-30T12:01:07;3.00;;;2.80;;
31464;SDS011;18089;47.428;15.006;2022-09-30T12:03:50;3.20;;;3.00;;
31464;SDS011;18089;47.428;15.006;2022-09-30T12:06:30;14.95;;;11.63;;
31464;SDS011;18089;47.428;15.006;2022-09-30T12:09:10;2.75;;;2.65;;
31464;SDS011;18089;47.428;15.006;2022-09-30T12:11:49;3.67;;;3.38;;
31464;SDS011;18089;47.428;15.006;2022-09-30T12:14:25;3.28;;;2.80;;
31464;SDS011;18089;47.428;15.006;2022-09-30T12:17:01;3.30;;;3.00;;
31464;SDS011;18089;47.428;15.006;2022-09-30T12:19:37;3.10;;;2.90;;
31464;SDS011;18089;47.428;15.006;2022-09-30T12:22:13;3.63;;;2.95;;
31464;SDS011;18089;47.428;15.006;2022-09-30T12:24:47;3.65;;;3.40;;
31464;SDS011;18089;47.428;15.006;2022-09-30T12:27:22;4.32;;;3.53;;
31464;SDS011;18089;47.428;15.006;2022-09-30T12:29:57;4.60;;;4.20;;
31464;SDS011;18089;47.428;15.006;2022-09-30T12:32:56;5.60;;;4.32;;
31464;SDS011;18089;47.428;15.006;2022-09-30T12:35:54;10.55;;;7.40;;
31464;SDS011;18089;47.428;15.006;2022-09-30T12:41:59;5.00;;;4.50;;
31464;SDS011;18089;47.428;15.006;2022-09-30T12:44:42;5.20;;;4.70;;
31464;SDS011;18089;47.428;15.006;2022-09-30T12:47:30;7.82;;;4.15;;
31464;SDS011;18089;47.428;15.006;2022-09-30T12:50:03;6.40;;;4.60;;
31464;SDS011;18089;47.428;15.006;2022-09-30T12:52:37;4.53;;;3.83;;
31464;SDS011;18089;47.428;15.006;2022-09-30T12:55:14;5.45;;;3.88;;
31464;SDS011;18089;47.428;15.006;2022-09-30T12:57:52;4.95;;;4.10;;
31464;SDS011;18089;47.428;15.006;2022-09-30T13:00:27;5.13;;;4.25;;
31464;SDS011;18089;47.428;15.006;2022-09-30T13:03:02;4.60;;;4.10;;
31464;SDS011;18089;47.428;15.006;2022-09-30T13:05:51;4.20;;;3.90;;
31464;SDS011;18089;47.428;15.006;2022-09-30T13:11:38;4.45;;;4.05;;
31464;SDS011;18089;47.428;15.006;2022-09-30T13:14:15;4.70;;;4.30;;
31464;SDS011;18089;47.428;15.006;2022-09-30T13:23:12;5.20;;;4.70;;
31464;SDS011;18089;47.428;15.006;2022-09-30T13:29:26;5.28;;;4.32;;
31464;SDS011;18089;47.428;15.006;2022-09-30T13:32:07;4.68;;;3.67;;
31464;SDS011;18089;47.428;15.006;2022-09-30T13:34:47;3.97;;;3.67;;
31464;SDS011;18089;47.428;15.006;2022-09-30T13:37:35;6.38;;;4.22;;
31464;SDS011;18089;47.428;15.006;2022-09-30T13:40:22;4.47;;;3.50;;
31464;SDS011;18089;47.428;15.006;2022-09-30T13:42:56;3.92;;;3.30;;
31464;SDS011;18089;47.428;15.006;2022-09-30T13:45:30;3.83;;;3.53;;
31464;SDS011;18089;47.428;15.006;2022-09-30T13:48:06;3.33;;;3.10;;
31464;SDS011;18089;47.428;15.006;2022-09-30T13:50:44;3.30;;;3.10;;
31464;SDS011;18089;47.428;15.006;2022-09-30T13:53:21;4.75;;;3.30;;
31464;SDS011;18089;47.428;15.006;2022-09-30T13:55:57;4.07;;;3.78;;
31464;SDS011;18089;47.428;15.006;2022-09-30T13:58:39;4.05;;;3.67;;
31464;SDS011;18089;47.428;15.006;2022-09-30T14:01:38;4.03;;;3.63;;
31464;SDS011;18089;47.428;15.006;2022-09-30T14:04:26;4.28;;;3.88;;
31464;SDS011;18089;47.428;15.006;2022-09-30T14:07:16;3.88;;;3.50;;
31464;SDS011;18089;47.428;15.006;2022-09-30T14:13:07;4.22;;;3.88;;
31464;SDS011;18089;47.428;15.006;2022-09-30T14:16:06;3.95;;;3.65;;
31464;SDS011;18089;47.428;15.006;2022-09-30T14:19:07;5.97;;;3.88;;
31464;SDS011;18089;47.428;15.006;2022-09-30T14:22:13;3.65;;;3.45;;
31464;SDS011;18089;47.428;15.006;2022-09-30T14:24:46;3.90;;;3.60;;
31464;SDS011;18089;47.428;15.006;2022-09-30T14:30:13;4.10;;;3.70;;
31464;SDS011;18089;47.428;15.006;2022-09-30T14:32:48;4.40;;;3.75;;
31464;SDS011;18089;47.428;15.006;2022-09-30T14:35:23;4.40;;;4.10;;
31464;SDS011;18089;47.428;15.006;2022-09-30T14:37:58;4.45;;;4.05;;
31464;SDS011;18089;47.428;15.006;2022-09-30T14:40:33;5.30;;;4.90;;
31464;SDS011;18089;47.428;15.006;2022-09-30T14:43:06;6.70;;;5.75;;
31464;SDS011;18089;47.428;15.006;2022-09-30T14:45:44;7.63;;;5.72;;
31464;SDS011;18089;47.428;15.006;2022-09-30T14:48:17;6.97;;;6.20;;
31464;SDS011;18089;47.428;15.006;2022-09-30T14:50:55;13.15;;;11.85;;
31464;SDS011;18089;47.428;15.006;2022-09-30T14:53:29;9.45;;;8.55;;
31464;SDS011;18089;47.428;15.006;2022-09-30T14:56:03;5.95;;;5.45;;
31464;SDS011;18089;47.428;15.006;2022-09-30T14:58:51;9.63;;;7.80;;
31464;SDS011;18089;47.428;15.006;2022-09-30T15:01:28;7.20;;;6.50;;
31464;SDS011;18089;47.428;15.006;2022-09-30T15:04:04;6.90;;;6.30;;
31464;SDS011;18089;47.428;15.006;2022-09-30T15:06:41;10.38;;;5.97;;
31464;SDS011;18089;47.428;15.006;2022-09-30T15:09:17;6.20;;;5.57;;
31464;SDS011;18089;47.428;15.006;2022-09-30T15:11:52;4.90;;;4.50;;
31464;SDS011;18089;47.428;15.006;2022-09-30T15:14:24;4.18;;;3.88;;
31464;SDS011;18089;47.428;15.006;2022-09-30T15:20:22;4.88;;;4.47;;
31464;SDS011;18089;47.428;15.006;2022-09-30T15:22:56;4.63;;;4.22;;
31464;SDS011;18089;47.428;15.006;2022-09-30T15:25:32;5.32;;;4.80;;
31464;SDS011;18089;47.428;15.006;2022-09-30T15:28:04;4.97;;;4.47;;
31464;SDS011;18089;47.428;15.006;2022-09-30T15:30:39;61.58;;;42.03;;
31464;SDS011;18089;47.428;15.006;2022-09-30T15:33:13;8.68;;;5.85;;
31464;SDS011;18089;47.428;15.006;2022-09-30T15:35:48;10.70;;;7.55;;
31464;SDS011;18089;47.428;15.006;2022-09-30T15:38:22;81.15;;;51.13;;
31464;SDS011;18089;47.428;15.006;2022-09-30T15:40:57;44.38;;;25.80;;
31464;SDS011;18089;47.428;15.006;2022-09-30T15:43:33;13.20;;;8.18;;
31464;SDS011;18089;47.428;15.006;2022-09-30T15:46:15;6.57;;;5.97;;
31464;SDS011;18089;47.428;15.006;2022-09-30T15:48:57;7.07;;;6.38;;
31464;SDS011;18089;47.428;15.006;2022-09-30T15:51:33;12.57;;;8.68;;
31464;SDS011;18089;47.428;15.006;2022-09-30T15:57:01;6.75;;;5.25;;